createdAt,value
2022-12-05T00:01:26.635Z,101447.13
2022-12-05T00:03:55.511Z,101447.13
2022-12-05T00:06:23.410Z,101449.78
2022-12-05T00:08:51.195Z,101449.78
2022-12-05T00:11:23.229Z,101452.47
2022-12-05T00:13:50.136Z,101444.47
2022-12-05T00:16:19.336Z,101443.44
2022-12-05T00:18:46.100Z,101444.09
2022-12-05T00:21:16.510Z,101438.78
2022-12-05T00:23:43.335Z,101435.94
2022-12-05T00:26:10.660Z,101438.38
2022-12-05T00:28:37.415Z,101434.91
2022-12-05T00:31:11.813Z,101439.88
2022-12-05T00:33:38.649Z,101432.88
2022-12-05T00:36:08.059Z,101437.41
2022-12-05T00:38:34.933Z,101447.88
2022-12-05T00:41:10.089Z,101447.66
2022-12-05T00:43:37.045Z,101443.19
2022-12-05T00:46:08.526Z,101449.53
2022-12-05T00:48:35.675Z,101445.84
2022-12-05T00:51:23.097Z,101445.00
2022-12-05T00:53:50.243Z,101449.34
2022-12-05T00:56:23.907Z,101446.69
2022-12-05T00:58:52.624Z,101460.00
2022-12-05T01:01:24.884Z,101458.97
2022-12-05T01:03:54.743Z,101461.66
2022-12-05T01:06:22.478Z,101459.16
2022-12-05T01:08:49.267Z,101467.16
2022-12-05T01:11:17.680Z,101468.34
2022-12-05T01:13:44.622Z,101470.84
2022-12-05T01:16:26.291Z,101465.69
2022-12-05T01:18:53.617Z,101476.34
2022-12-05T01:21:20.536Z,101471.22
2022-12-05T01:23:47.381Z,101468.53
2022-12-05T01:26:15.681Z,101466.91
2022-12-05T01:28:42.453Z,101462.38
2022-12-05T01:31:14.460Z,101463.22
2022-12-05T01:33:41.015Z,101452.91
2022-12-05T01:36:11.281Z,101455.56
2022-12-05T01:38:39.880Z,101461.56
2022-12-05T01:41:09.026Z,101453.56
2022-12-05T01:43:54.067Z,101464.22
2022-12-05T01:46:20.668Z,101452.72
2022-12-05T01:48:47.474Z,101452.72
2022-12-05T01:51:14.209Z,101448.25
2022-12-05T01:53:40.763Z,101444.72
2022-12-05T01:56:08.108Z,101442.25
2022-12-05T01:58:37.484Z,101445.75
2022-12-05T02:01:04.865Z,101446.78
2022-12-05T02:03:31.489Z,101449.25
2022-12-05T02:05:58.879Z,101449.25
2022-12-05T02:08:28.007Z,101452.91
2022-12-05T02:10:56.193Z,101443.94
2022-12-05T02:13:47.107Z,101440.44
2022-12-05T02:16:23.701Z,101444.72
2022-12-05T02:19:01.846Z,101439.41
2022-12-05T02:21:49.885Z,101442.91
2022-12-05T02:24:19.411Z,101441.88
2022-12-05T02:26:54.944Z,101439.66
2022-12-05T02:29:39.453Z,101436.19
2022-12-05T02:32:43.376Z,101433.34
2022-12-05T02:35:46.535Z,101438.28
2022-12-05T02:38:48.482Z,101435.00
2022-12-05T02:41:17.855Z,101434.81
2022-12-05T02:43:54.690Z,101425.78
2022-12-05T02:46:23.079Z,101429.47
2022-12-05T02:48:53.391Z,101422.28
2022-12-05T02:51:21.669Z,101426.63
2022-12-05T02:53:49.583Z,101416.34
2022-12-05T02:56:16.272Z,101417.16
2022-12-05T02:58:48.573Z,101419.00
2022-12-05T03:01:15.528Z,101416.34
2022-12-05T03:03:42.206Z,101420.84
2022-12-05T03:06:37.018Z,101417.34
2022-12-05T03:09:10.415Z,101413.84
2022-12-05T03:12:00.871Z,101410.34
2022-12-05T03:14:31.119Z,101414.88
2022-12-05T03:17:01.033Z,101415.06
2022-12-05T03:19:34.468Z,101417.72
2022-12-05T03:22:04.041Z,101414.03
2022-12-05T03:24:30.857Z,101423.88
2022-12-05T03:27:13.010Z,101426.75
2022-12-05T03:29:54.261Z,101423.22
2022-12-05T03:32:48.380Z,101430.22
2022-12-05T03:35:26.870Z,101422.03
2022-12-05T03:38:15.394Z,101421.41
2022-12-05T03:40:48.678Z,101417.72
2022-12-05T03:43:20.955Z,101421.22
2022-12-05T03:46:00.976Z,101422.03
2022-12-05T03:48:35.203Z,101413.22
2022-12-05T03:51:03.102Z,101415.06
2022-12-05T03:53:52.874Z,101416.88
2022-12-05T03:56:26.171Z,101417.53
2022-12-05T03:59:01.389Z,101428.19
2022-12-05T04:01:29.730Z,101430.88
2022-12-05T04:03:59.368Z,101430.03
2022-12-05T04:06:31.812Z,101430.88
2022-12-05T04:09:02.380Z,101421.00
2022-12-05T04:11:32.252Z,101417.53
2022-12-05T04:14:11.810Z,101427.19
2022-12-05T04:17:00.436Z,101422.88
2022-12-05T04:20:08.186Z,101430.03
2022-12-05T04:22:35.174Z,101425.53
2022-12-05T04:25:21.830Z,101429.22
2022-12-05T04:27:54.046Z,101419.38
2022-12-05T04:30:23.246Z,101437.00
2022-12-05T04:32:56.071Z,101428.03
2022-12-05T04:35:46.217Z,101425.53
2022-12-05T04:38:23.432Z,101423.50
2022-12-05T04:40:59.103Z,101428.81
2022-12-05T04:43:27.257Z,101424.34
2022-12-05T04:45:54.736Z,101425.78
2022-12-05T04:48:23.016Z,101424.97
2022-12-05T04:50:51.017Z,101424.97
2022-12-05T04:53:18.378Z,101425.78
2022-12-05T04:55:48.529Z,101424.97
2022-12-05T04:58:19.810Z,101424.97
2022-12-05T05:00:52.205Z,101421.66
2022-12-05T05:03:27.673Z,101425.97
2022-12-05T05:05:55.467Z,101427.63
2022-12-05T05:08:25.546Z,101434.16
2022-12-05T05:11:01.116Z,101434.16
2022-12-05T05:13:27.690Z,101433.34
2022-12-05T05:15:54.236Z,101425.13
2022-12-05T05:18:20.773Z,101427.00
2022-12-05T05:20:47.414Z,101424.16
2022-12-05T05:23:14.485Z,101425.97
2022-12-05T05:25:41.017Z,101424.97
2022-12-05T05:28:07.563Z,101428.47
2022-12-05T05:30:34.094Z,101426.81
2022-12-05T05:33:00.878Z,101429.31
2022-12-05T05:35:27.448Z,101430.28
2022-12-05T05:37:54.744Z,101443.44
2022-12-05T05:40:21.328Z,101436.47
2022-12-05T05:42:50.592Z,101437.47
2022-12-05T05:45:17.541Z,101444.63
2022-12-05T05:47:44.185Z,101439.31
2022-12-05T05:50:13.875Z,101440.31
2022-12-05T05:52:42.932Z,101441.34
2022-12-05T05:55:10.062Z,101433.34
2022-12-05T05:57:36.931Z,101433.34
2022-12-05T06:00:06.165Z,101437.84
2022-12-05T06:02:34.157Z,101435.34
2022-12-05T06:05:00.723Z,101442.34
2022-12-05T06:07:27.777Z,101433.72
2022-12-05T06:09:54.349Z,101434.56
2022-12-05T06:12:21.042Z,101438.03
2022-12-05T06:14:48.928Z,101439.03
2022-12-05T06:17:15.795Z,101448.69
2022-12-05T06:19:42.388Z,101441.72
2022-12-05T06:22:08.931Z,101438.03
2022-12-05T06:24:35.543Z,101440.69
2022-12-05T06:27:02.102Z,101449.53
2022-12-05T06:29:33.485Z,101450.34
2022-12-05T06:32:00.639Z,101450.53
2022-12-05T06:34:27.534Z,101446.84
2022-12-05T06:36:54.116Z,101454.69
2022-12-05T06:39:20.687Z,101448.31
2022-12-05T06:41:47.261Z,101452.81
2022-12-05T06:44:13.805Z,101455.31
2022-12-05T06:46:40.413Z,101450.63
2022-12-05T06:49:06.993Z,101453.91
2022-12-05T06:51:33.555Z,101461.91
2022-12-05T06:54:00.094Z,101460.09
2022-12-05T06:56:26.685Z,101472.22
2022-12-05T06:58:53.618Z,101468.53
2022-12-05T07:01:45.649Z,101466.88
2022-12-05T07:04:13.478Z,101471.19
2022-12-05T07:06:43.931Z,101470.34
2022-12-05T07:09:12.882Z,101472.03
2022-12-05T07:11:39.459Z,101471.19
2022-12-05T07:14:10.654Z,101477.56
2022-12-05T07:16:46.019Z,101479.38
2022-12-05T07:19:12.687Z,101477.91
2022-12-05T07:21:39.235Z,101477.91
2022-12-05T07:24:05.768Z,101476.09
2022-12-05T07:26:32.295Z,101475.59
2022-12-05T07:28:58.860Z,101480.56
2022-12-05T07:31:26.443Z,101480.94
2022-12-05T07:33:53.426Z,101487.94
2022-12-05T07:36:23.717Z,101483.59
2022-12-05T07:38:55.879Z,101486.25
2022-12-05T07:41:28.115Z,101489.78
2022-12-05T07:43:56.097Z,101486.25
2022-12-05T07:46:23.256Z,101491.59
2022-12-05T07:48:50.344Z,101496.94
2022-12-05T07:51:17.697Z,101496.94
2022-12-05T07:53:45.058Z,101492.44
2022-12-05T07:56:17.005Z,101494.25
2022-12-05T07:58:45.209Z,101492.44
2022-12-05T08:01:20.469Z,101488.94
2022-12-05T08:03:47.800Z,101490.41
2022-12-05T08:06:17.133Z,101492.63
2022-12-05T08:08:43.823Z,101492.44
2022-12-05T08:11:13.363Z,101494.44
2022-12-05T08:13:40.515Z,101496.94
2022-12-05T08:16:10.138Z,101489.13
2022-12-05T08:18:42.487Z,101494.25
2022-12-05T08:21:17.029Z,101493.47
2022-12-05T08:23:44.767Z,101491.59
2022-12-05T08:26:15.383Z,101497.59
2022-12-05T08:28:42.588Z,101494.09
2022-12-05T08:31:11.863Z,101497.59
2022-12-05T08:33:38.779Z,101496.75
2022-12-05T08:36:10.552Z,101497.59
2022-12-05T08:38:37.318Z,101499.25
2022-12-05T08:41:05.506Z,101492.25
2022-12-05T08:43:32.359Z,101491.25
2022-12-05T08:45:59.191Z,101494.09
2022-12-05T08:48:29.491Z,101498.41
2022-12-05T08:50:56.954Z,101498.41
2022-12-05T08:53:23.528Z,101492.25
2022-12-05T08:55:50.088Z,101493.28
2022-12-05T08:58:16.670Z,101497.41
2022-12-05T09:00:43.570Z,101503.56
2022-12-05T09:03:11.934Z,101504.56
2022-12-05T09:05:39.048Z,101499.06
2022-12-05T09:08:05.779Z,101499.06
2022-12-05T09:10:32.373Z,101505.19
2022-12-05T09:12:58.923Z,101508.88
2022-12-05T09:15:25.510Z,101512.22
2022-12-05T09:17:52.081Z,101501.53
2022-12-05T09:20:18.636Z,101497.19
2022-12-05T09:22:45.233Z,101492.72
2022-12-05T09:25:11.814Z,101498.88
2022-12-05T09:27:38.354Z,101501.53
2022-12-05T09:30:06.287Z,101499.88
2022-12-05T09:32:32.843Z,101494.53
2022-12-05T09:34:59.653Z,101497.41
2022-12-05T09:37:41.632Z,101501.91
2022-12-05T09:40:16.346Z,101503.56
2022-12-05T09:43:07.415Z,101500.06
2022-12-05T09:45:40.085Z,101497.41
2022-12-05T09:48:16.118Z,101500.06
2022-12-05T09:50:49.831Z,101492.88
2022-12-05T09:53:21.712Z,101492.88
2022-12-05T09:56:04.495Z,101487.38
2022-12-05T09:58:43.961Z,101489.03
2022-12-05T10:01:42.009Z,101496.22
2022-12-05T10:04:11.618Z,101486.53
2022-12-05T10:07:04.074Z,101488.22
2022-12-05T10:09:44.436Z,101480.22
2022-12-05T10:12:23.111Z,101485.56
2022-12-05T10:14:57.037Z,101489.03
2022-12-05T10:17:27.327Z,101485.56
2022-12-05T10:19:56.810Z,101479.38
2022-12-05T10:22:28.325Z,101486.53
2022-12-05T10:24:57.645Z,101483.88
2022-12-05T10:27:40.303Z,101483.06
2022-12-05T10:30:17.474Z,101485.72
2022-12-05T10:33:09.705Z,101480.41
2022-12-05T10:35:38.257Z,101483.88
2022-12-05T10:38:09.865Z,101478.75
2022-12-05T10:40:39.155Z,101480.56
2022-12-05T10:43:08.271Z,101478.53
2022-12-05T10:45:44.387Z,101482.41
2022-12-05T10:48:13.098Z,101479.72
2022-12-05T10:50:42.327Z,101469.91
2022-12-05T10:53:14.077Z,101481.59
2022-12-05T10:56:00.033Z,101473.78
2022-12-05T10:58:29.927Z,101482.41
2022-12-05T11:00:58.769Z,101479.72
2022-12-05T11:03:27.096Z,101475.59
2022-12-05T11:05:56.807Z,101475.59
2022-12-05T11:08:56.054Z,101466.81
2022-12-05T11:11:22.450Z,101484.25
2022-12-05T11:14:01.799Z,101481.78
2022-12-05T11:16:37.293Z,101475.25
2022-12-05T11:19:28.253Z,101474.03
2022-12-05T11:21:55.661Z,101474.50
2022-12-05T11:24:26.137Z,101470.84
2022-12-05T11:26:52.983Z,101473.28
2022-12-05T11:29:37.024Z,101471.47
2022-12-05T11:32:20.265Z,101469.63
2022-12-05T11:35:09.538Z,101473.94
2022-12-05T11:37:44.344Z,101470.44
2022-12-05T11:40:25.292Z,101476.63
2022-12-05T11:43:25.280Z,101465.13
2022-12-05T11:46:26.213Z,101471.47
2022-12-05T11:49:15.314Z,101469.81
2022-12-05T11:51:52.100Z,101468.97
2022-12-05T11:54:56.850Z,101468.97
2022-12-05T11:57:52.313Z,101471.81
2022-12-05T12:00:23.435Z,101468.34
2022-12-05T12:03:10.620Z,101464.66
2022-12-05T12:06:14.310Z,101460.34
2022-12-05T12:08:56.142Z,101464.84
2022-12-05T12:11:32.838Z,101460.53
2022-12-05T12:14:31.357Z,101456.22
2022-12-05T12:17:00.647Z,101450.91
2022-12-05T12:20:17.623Z,101450.72
2022-12-05T12:23:04.638Z,101442.91
2022-12-05T12:25:56.099Z,101440.22
2022-12-05T12:28:52.379Z,101439.38
2022-12-05T12:31:44.183Z,101434.06
2022-12-05T12:34:42.858Z,101436.53
2022-12-05T12:37:21.925Z,101434.06
2022-12-05T12:39:53.513Z,101437.56
2022-12-05T12:42:29.483Z,101435.69
2022-12-05T12:45:31.275Z,101436.72
2022-12-05T12:48:18.336Z,101433.88
2022-12-05T12:50:45.682Z,101437.16
2022-12-05T12:53:12.152Z,101440.69
2022-12-05T12:56:02.436Z,101436.19
2022-12-05T12:58:34.663Z,101429.81
2022-12-05T13:01:16.048Z,101416.69
2022-12-05T13:03:51.751Z,101425.69
2022-12-05T13:06:29.798Z,101425.50
2022-12-05T13:09:03.859Z,101422.84
2022-12-05T13:11:35.454Z,101428.19
2022-12-05T13:14:02.392Z,101417.69
2022-12-05T13:16:45.884Z,101425.50
2022-12-05T13:19:25.921Z,101423.84
2022-12-05T13:21:53.413Z,101421.19
2022-12-05T13:24:25.207Z,101426.50
2022-12-05T13:26:51.808Z,101422.19
2022-12-05T13:29:31.247Z,101429.38
2022-12-05T13:31:58.137Z,101424.84
2022-12-05T13:34:28.037Z,101426.50
2022-12-05T13:37:13.941Z,101428.19
2022-12-05T13:39:59.522Z,101420.19
2022-12-05T13:42:30.274Z,101419.16
2022-12-05T13:45:06.859Z,101422.84
2022-12-05T13:48:01.747Z,101426.13
2022-12-05T13:50:56.586Z,101427.16
2022-12-05T13:53:39.637Z,101427.34
2022-12-05T13:56:12.209Z,101427.09
2022-12-05T13:58:55.926Z,101441.44
2022-12-05T14:01:30.823Z,101430.94
2022-12-05T14:04:05.032Z,101436.66
2022-12-05T14:06:38.131Z,101436.03
2022-12-05T14:09:30.895Z,101428.38
2022-12-05T14:12:12.841Z,101427.94
2022-12-05T14:14:57.563Z,101424.00
2022-12-05T14:17:32.538Z,101425.19
2022-12-05T14:20:22.453Z,101420.41
2022-12-05T14:23:20.463Z,101430.44
2022-12-05T14:26:09.094Z,101422.13
2022-12-05T14:29:04.547Z,101420.88
2022-12-05T14:31:49.781Z,101421.41
2022-12-05T14:34:24.692Z,101422.78
2022-12-05T14:37:23.419Z,101428.69
2022-12-05T14:39:54.815Z,101427.19
2022-12-05T14:42:38.994Z,101432.06
2022-12-05T14:45:32.598Z,101430.94
2022-12-05T14:48:01.578Z,101436.47
2022-12-05T14:50:35.848Z,101433.47
2022-12-05T14:53:20.765Z,101433.03
2022-12-05T14:55:57.793Z,101426.22
2022-12-05T14:58:39.928Z,101433.75
2022-12-05T15:01:17.067Z,101428.78
2022-12-05T15:04:14.527Z,101432.81
2022-12-05T15:07:10.158Z,101430.50
2022-12-05T15:09:51.887Z,101437.88
2022-12-05T15:12:20.425Z,101438.22
2022-12-05T15:15:02.291Z,101435.09
2022-12-05T15:17:37.287Z,101435.28
2022-12-05T15:20:08.645Z,101430.97
2022-12-05T15:22:37.840Z,101427.63
2022-12-05T15:25:24.346Z,101433.34
2022-12-05T15:27:56.119Z,101442.13
2022-12-05T15:30:22.717Z,101445.63
2022-12-05T15:32:49.364Z,101445.00
2022-12-05T15:35:16.557Z,101447.84
2022-12-05T15:38:09.420Z,101447.16
2022-12-05T15:40:39.249Z,101448.19
2022-12-05T15:43:31.788Z,101446.38
2022-12-05T15:46:23.845Z,101445.06
2022-12-05T15:49:01.384Z,101444.22
2022-12-05T15:51:34.966Z,101446.03
2022-12-05T15:54:11.964Z,101442.75
2022-12-05T15:57:01.331Z,101444.41
2022-12-05T15:59:39.253Z,101445.13
2022-12-05T16:02:41.087Z,101445.47
2022-12-05T16:05:19.541Z,101455.47
2022-12-05T16:07:48.950Z,101456.66
2022-12-05T16:10:16.613Z,101455.81
2022-12-05T16:12:43.489Z,101454.53
2022-12-05T16:15:22.004Z,101454.88
2022-12-05T16:17:53.825Z,101455.06
2022-12-05T16:20:32.007Z,101457.06
2022-12-05T16:23:02.099Z,101455.59
2022-12-05T16:25:31.838Z,101454.09
2022-12-05T16:28:08.463Z,101449.81
2022-12-05T16:30:35.879Z,101452.16
2022-12-05T16:33:08.822Z,101450.50
2022-12-05T16:35:40.891Z,101450.66
2022-12-05T16:38:16.514Z,101444.69
2022-12-05T16:40:46.090Z,101454.69
2022-12-05T16:43:38.837Z,101446.38
2022-12-05T16:46:37.273Z,101438.38
2022-12-05T16:49:34.375Z,101443.25
2022-12-05T16:52:08.798Z,101438.09
2022-12-05T16:54:35.774Z,101438.94
2022-12-05T16:57:02.686Z,101435.44
2022-12-05T16:59:37.346Z,101433.63
2022-12-05T17:02:07.201Z,101436.44
2022-12-05T17:04:33.978Z,101433.94
2022-12-05T17:07:00.582Z,101433.94
2022-12-05T17:09:27.285Z,101434.63
2022-12-05T17:12:18.973Z,101437.63
2022-12-05T17:14:47.217Z,101427.84
2022-12-05T17:17:15.827Z,101438.09
2022-12-05T17:19:42.699Z,101427.00
2022-12-05T17:22:10.214Z,101428.63
2022-12-05T17:24:36.825Z,101430.50
2022-12-05T17:27:05.258Z,101427.84
2022-12-05T17:29:35.705Z,101435.81
2022-12-05T17:32:03.082Z,101421.22
2022-12-05T17:34:29.689Z,101432.66
2022-12-05T17:36:56.232Z,101434.84
2022-12-05T17:39:28.112Z,101426.03
2022-12-05T17:41:55.633Z,101434.16
2022-12-05T17:44:22.303Z,101427.38
2022-12-05T17:46:49.448Z,101431.88
2022-12-05T17:49:17.844Z,101434.88
2022-12-05T17:52:13.322Z,101433.22
2022-12-05T17:54:31.396Z,101436.91
2022-12-05T17:56:57.956Z,101429.91
2022-12-05T17:59:24.497Z,101437.41
2022-12-05T18:01:51.130Z,101443.91
2022-12-05T18:04:22.692Z,101443.06
2022-12-05T18:06:49.785Z,101444.06
2022-12-05T18:09:16.429Z,101448.56
2022-12-05T18:11:42.980Z,101448.91
2022-12-05T18:14:10.380Z,101455.41
2022-12-05T18:16:36.960Z,101448.22
2022-12-05T18:19:04.161Z,101444.75
2022-12-05T18:21:30.765Z,101446.59
2022-12-05T18:23:57.475Z,101432.28
2022-12-05T18:26:24.059Z,101426.34
2022-12-05T18:28:52.168Z,101428.31
2022-12-05T18:31:18.812Z,101430.81
2022-12-05T18:33:46.436Z,101430.00
2022-12-05T18:36:15.792Z,101436.13
2022-12-05T18:38:45.832Z,101438.63
2022-12-05T18:41:12.372Z,101441.09
2022-12-05T18:43:40.116Z,101436.78
2022-12-05T18:46:06.776Z,101442.91
2022-12-05T18:48:46.124Z,101439.28
2022-12-05T18:51:16.585Z,101440.25
2022-12-05T18:53:51.398Z,101438.28
2022-12-05T18:56:24.560Z,101433.59
2022-12-05T18:59:03.876Z,101439.09
2022-12-05T19:01:32.634Z,101435.63
2022-12-05T19:04:01.004Z,101439.28
2022-12-05T19:06:32.823Z,101448.91
2022-12-05T19:09:01.503Z,101457.22
2022-12-05T19:11:28.858Z,101460.03
2022-12-05T19:13:56.872Z,101458.38
2022-12-05T19:16:23.733Z,101450.59
2022-12-05T19:18:54.974Z,101455.25
2022-12-05T19:21:22.360Z,101454.75
2022-12-05T19:23:48.940Z,101461.25
2022-12-05T19:26:15.627Z,101467.56
2022-12-05T19:28:42.185Z,101470.56
2022-12-05T19:31:10.495Z,101479.53
2022-12-05T19:33:45.156Z,101478.22
2022-12-05T19:36:13.885Z,101478.22
2022-12-05T19:38:42.225Z,101474.75
2022-12-05T19:41:10.430Z,101473.59
2022-12-05T19:43:37.776Z,101478.91
2022-12-05T19:46:06.606Z,101475.41
2022-12-05T19:48:33.741Z,101474.94
2022-12-05T19:51:01.524Z,101479.22
2022-12-05T19:53:29.901Z,101475.94
2022-12-05T19:56:12.848Z,101483.22
2022-12-05T19:58:39.941Z,101479.94
2022-12-05T20:01:20.589Z,101487.56
2022-12-05T20:03:55.571Z,101488.22
2022-12-05T20:06:22.658Z,101488.22
2022-12-05T20:08:52.350Z,101487.19
2022-12-05T20:11:21.946Z,101491.34
2022-12-05T20:13:48.658Z,101484.22
2022-12-05T20:16:18.474Z,101482.41
2022-12-05T20:18:45.321Z,101487.34
2022-12-05T20:21:13.715Z,101490.00
2022-12-05T20:23:40.298Z,101495.16
2022-12-05T20:26:12.239Z,101491.66
2022-12-05T20:28:39.648Z,101493.16
2022-12-05T20:31:14.604Z,101497.47
2022-12-05T20:33:41.334Z,101499.97
2022-12-05T20:36:10.685Z,101500.31
2022-12-05T20:38:37.412Z,101497.47
2022-12-05T20:41:06.473Z,101498.47
2022-12-05T20:43:33.460Z,101500.31
2022-12-05T20:46:08.404Z,101497.81
2022-12-05T20:48:35.123Z,101489.19
2022-12-05T20:51:09.940Z,101483.22
2022-12-05T20:53:37.927Z,101482.41
2022-12-05T20:56:09.265Z,101480.88
2022-12-05T20:58:36.482Z,101484.53
2022-12-05T21:01:06.246Z,101480.41
2022-12-05T21:03:33.063Z,101481.41
2022-12-05T21:05:59.738Z,101484.41
2022-12-05T21:08:26.331Z,101479.94
2022-12-05T21:10:53.003Z,101483.59
2022-12-05T21:13:19.782Z,101472.13
2022-12-05T21:15:46.387Z,101466.34
2022-12-05T21:18:12.959Z,101467.50
2022-12-05T21:20:42.229Z,101465.34
2022-12-05T21:23:09.388Z,101465.34
2022-12-05T21:25:36.073Z,101464.50
2022-12-05T21:28:02.780Z,101459.56
2022-12-05T21:30:29.395Z,101469.16
2022-12-05T21:32:55.972Z,101470.34
2022-12-05T21:35:22.532Z,101471.97
2022-12-05T21:37:49.133Z,101470.16
2022-12-05T21:40:15.755Z,101468.31
2022-12-05T21:42:42.305Z,101475.97
2022-12-05T21:45:09.117Z,101474.97
2022-12-05T21:47:35.641Z,101465.00
2022-12-05T21:50:02.197Z,101462.34
2022-12-05T21:52:28.778Z,101455.03
2022-12-05T21:54:55.328Z,101458.38
2022-12-05T21:57:21.853Z,101458.19
2022-12-05T21:59:48.413Z,101444.94
2022-12-05T22:02:15.010Z,101447.38
2022-12-05T22:04:41.580Z,101442.91
2022-12-05T22:07:08.137Z,101443.06
2022-12-05T22:09:34.724Z,101448.38
2022-12-05T22:12:01.396Z,101459.00
2022-12-05T22:14:27.938Z,101461.03
2022-12-05T22:16:54.478Z,101459.84
2022-12-05T22:19:21.003Z,101461.03
2022-12-05T22:21:47.740Z,101453.22
2022-12-05T22:24:14.348Z,101453.56
2022-12-05T22:26:40.881Z,101449.09
2022-12-05T22:29:07.568Z,101446.75
2022-12-05T22:31:34.142Z,101438.97
2022-12-05T22:34:00.730Z,101432.00
2022-12-05T22:36:27.337Z,101432.84
2022-12-05T22:38:53.861Z,101427.69
2022-12-05T22:41:22.700Z,101424.53
2022-12-05T22:43:50.332Z,101427.50
2022-12-05T22:46:19.558Z,101427.69
2022-12-05T22:48:47.679Z,101433.16
2022-12-05T22:51:15.659Z,101428.00
2022-12-05T22:53:42.445Z,101430.00
2022-12-05T22:56:13.716Z,101431.81
2022-12-05T22:58:40.645Z,101431.19
2022-12-05T23:01:16.330Z,101428.69
2022-12-05T23:03:44.626Z,101424.56
2022-12-05T23:06:13.503Z,101421.06
2022-12-05T23:08:41.010Z,101411.44
2022-12-05T23:11:07.889Z,101412.78
2022-12-05T23:13:35.222Z,101399.97
2022-12-05T23:16:22.150Z,101400.81
2022-12-05T23:18:50.148Z,101398.63
2022-12-05T23:21:24.132Z,101392.31
2022-12-05T23:23:53.515Z,101392.31
2022-12-05T23:26:21.817Z,101391.84
2022-12-05T23:28:48.361Z,101391.53
2022-12-05T23:31:15.451Z,101398.66
2022-12-05T23:33:42.177Z,101393.34
2022-12-05T23:36:09.599Z,101396.16
2022-12-05T23:38:40.080Z,101389.03
2022-12-05T23:41:10.267Z,101388.03
2022-12-05T23:43:37.288Z,101385.72
2022-12-05T23:46:05.703Z,101385.03
2022-12-05T23:48:32.530Z,101399.13
2022-12-05T23:51:11.379Z,101400.13
2022-12-05T23:53:39.737Z,101393.00
2022-12-05T23:56:13.795Z,101392.31
2022-12-05T23:58:40.856Z,101389.03
